• Join FlightAware (Why Join?)
  • Login
  • US Flag 
08:29AM EST


 

Airport Tracker/Info


-or-


 

Live Flight TrackerFlight Track Log ✈ N695BK ✈ 29-Apr-2013 ✈ KGPI - KFAR

Flight Track Log - Related Links

Times and Time Zones

All times are in EDT time to prevent confusion due to time zone crossing. See the N695BK flight status page for this flight to view local times or setup timezone preferences in your user account.

Time Position Orientation Groundspeed Altitude Reporting Facility
EDT Latitude Longitude Course Direction KTS MPH feet Rate Location/Type
03:56PM 48.2919 -114.2736 96° East 158 182 3,900  Level Salt Lake Center
03:57PM 48.2358 -114.2719 179° South 253 291 6,500 2,880 Climbing Salt Lake Center
03:58PM 48.1964 -114.1831 124° Southeast 256 295 9,900 2,940 Climbing Salt Lake Center
03:59PM 48.1861 -114.0653 97° East 289 333 12,600 3,120 Climbing Salt Lake Center
04:00PM 48.3000 -113.2315 90° East  Level FlightAware Approximate
04:00PM 48.1869 -113.9389 89° East 302 348 16,300  Level Salt Lake Center
04:01PM 48.2962 -113.0621 96° East  Level FlightAware Approximate
04:01PM 48.1856 -113.8125 91° East 304 350 19,100  Level Salt Lake Center
04:02PM 48.1858 -113.6792 90° East 316 364 21,500 2,400 Climbing Salt Lake Center
04:03PM 48.1856 -113.5092 90° East 337 388 24,100 1,800 Climbing Salt Lake Center
04:04PM 48.1856 -113.3558 90° East 364 419 25,300 1,020 Climbing Salt Lake Center
04:05PM 48.1844 -113.1836 90° East 407 468 26,300 840 Climbing Salt Lake Center
04:06PM 48.1825 -112.9939 91° East 450 518 27,100 780 Climbing Salt Lake Center
04:07PM 48.1819 -112.7925 90° East 477 549 27,900 840 Climbing Salt Lake Center
04:08PM 48.1792 -112.5861 91° East 493 567 28,900 960 Climbing Salt Lake Center
04:09PM 48.1775 -112.3683 91° East 496 571 29,900 960 Climbing Salt Lake Center
04:10PM 48.1761 -112.1628 91° East 494 568 30,900 960 Climbing Salt Lake Center
04:11PM 48.1725 -111.9592 91° East 491 565 31,900 960 Climbing Salt Lake Center
04:12PM 48.1686 -111.7592 92° East 483 556 32,900 1,020 Climbing Salt Lake Center
04:13PM 48.1658 -111.5611 91° East 477 549 34,000 1,020 Climbing Salt Lake Center
04:14PM 48.1606 -111.3650 92° East 472 543 35,000 900 Climbing Salt Lake Center
04:15PM 48.1567 -111.1708 92° East 467 537 35,900 780 Climbing Salt Lake Center
04:16PM 48.1525 -110.9783 92° East 463 533 36,600 480 Climbing Salt Lake Center
04:17PM 48.1472 -110.7494 92° East 458 527 37,000 180 Climbing Salt Lake Center
04:18PM 48.1408 -110.5519 93° East 468 539 37,000  Level Salt Lake Center
04:19PM 48.1364 -110.3508 92° East 478 550 37,000  Level Salt Lake Center
04:20PM 48.1306 -110.1464 92° East 486 559 37,000  Level Salt Lake Center
04:21PM 48.1233 -109.9397 93° East 494 568 37,000  Level Salt Lake Center
04:22PM 48.1167 -109.7317 93° East 500 575 37,000  Level Salt Lake Center
04:23PM 48.1106 -109.5233 92° East 501 577 37,000  Level Salt Lake Center
04:24PM 48.1011 -109.3150 94° East 502 578 37,000  Level Salt Lake Center
04:25PM 48.0933 -109.1044 93° East 505 581 37,000 -60 Level Salt Lake Center
04:26PM 48.0803 -108.8531 94° East 507 583 36,900  Descending Salt Lake Center
04:27PM 48.0742 -108.6456 92° East 502 578 37,000  Climbing Salt Lake Center
04:28PM 48.0639 -108.4375 94° East 503 579 37,000  Level Salt Lake Center
04:29PM 48.0550 -108.2303 94° East 502 578 37,000  Level Salt Lake Center
04:31PM 48.0447 -108.0244 94° East 499 574 37,000  Level Salt Lake Center
04:32PM 48.0342 -107.8164 94° East 503 579 37,000 -60 Level Salt Lake Center
04:33PM 48.0233 -107.6081 94° East 504 580 36,900  Descending Salt Lake Center
04:34PM 48.0108 -107.3717 94° East 501 577 37,000  Climbing Salt Lake Center
04:35PM 47.9981 -107.1661 95° East 499 574 37,000  Level Salt Lake Center
04:36PM 47.9856 -106.9600 95° East 500 575 37,000  Level Salt Lake Center
04:37PM 47.9736 -106.7514 95° East 505 581 37,000 -60 Level Salt Lake Center
04:38PM 47.9606 -106.5408 95° East 510 587 36,900  Descending Salt Lake Center
04:39PM 47.9467 -106.3292 96° East 513 590 37,000  Climbing Salt Lake Center
04:40PM 47.9314 -106.1172 96° East 515 593 36,900  Descending Salt Lake Center
04:41PM 47.9172 -105.9044 96° East 517 595 37,000  Climbing Salt Lake Center
04:42PM 47.8994 -105.6525 96° East 513 590 37,000  Level Salt Lake Center
04:43PM 47.8844 -105.4442 96° East 510 587 37,000  Level Salt Lake Center
04:44PM 47.8697 -105.2367 96° East 508 585 37,000 -60 Level Salt Lake Center
04:45PM 47.8533 -105.0303 97° East 505 581 36,900  Descending Salt Lake Center
04:46PM 47.8383 -104.8233 96° East 504 580 37,000  Climbing Salt Lake Center
04:47PM 47.8228 -104.6181 96° East 503 579 37,000  Level Salt Lake Center
04:48PM 47.8064 -104.4122 97° East 503 579 37,000  Level Salt Lake Center
04:49PM 47.7892 -104.2086 97° East 500 575 37,000  Level Salt Lake Center
04:50PM 47.7719 -104.0033 97° East 499 574 37,000  Level Salt Lake Center
04:51PM 47.7508 -103.7714 98° East 498 573 37,000  Level Salt Lake Center
04:52PM 47.7317 -103.5428 97° East 496 571 37,000  Level Salt Lake Center
04:53PM 47.7094 -103.2975 98° East 499 574 37,000  Level Salt Lake Center
04:54PM 47.6900 -103.0931 98° East 499 574 37,000  Level Salt Lake Center
04:55PM 47.6864 -103.0547 98° East 500 575 37,000  Level Minneapolis Center
04:56PM 47.6683 -102.8494 97° East 501 577 37,000  Level Minneapolis Center
04:57PM 47.6442 -102.6067 98° East 499 574 37,000  Level Minneapolis Center
04:58PM 47.6256 -102.4003 98° East 501 577 37,000  Level Minneapolis Center
04:59PM 47.6064 -102.1967 98° East 500 575 37,000  Level Minneapolis Center
05:00PM 47.5844 -101.9917 99° East 502 578 37,000  Level Minneapolis Center
05:01PM 47.5642 -101.7875 98° East 502 578 37,000  Level Minneapolis Center
05:02PM 47.5431 -101.5811 99° East 505 581 37,000  Level Minneapolis Center
05:03PM 47.5167 -101.3322 99° East 509 586 37,000  Level Minneapolis Center
05:04PM 47.4931 -101.1236 99° East 513 590 37,000  Level Minneapolis Center
05:05PM 47.4658 -100.8697 99° East 511 588 37,000  Level Minneapolis Center
05:06PM 47.4408 -100.6633 100° East 510 587 37,000  Level Minneapolis Center
05:07PM 47.4125 -100.4567 101° East 513 590 37,000  Level Minneapolis Center
05:08PM 47.3892 -100.2539 100° East 507 583 37,000  Level Minneapolis Center
05:09PM 47.3692 -100.0933 100° East 503 579 37,000  Level Minneapolis Center
05:10PM 47.3344 -99.8094 100° East 504 580 37,000  Level Minneapolis Center
05:11PM 47.3094 -99.6078 100° East 503 579 37,000  Level Minneapolis Center
05:12PM 47.2839 -99.4067 101° East 503 579 37,000  Level Minneapolis Center
05:13PM 47.2572 -99.2075 101° East 500 575 37,000 -540 Level Minneapolis Center
05:14PM 47.2322 -99.0122 101° East 493 567 35,900 -1,920 Descending Minneapolis Center
05:15PM 47.2069 -98.8183 101° East 487 560 33,100 -3,060 Descending Minneapolis Center
05:17PM 47.1744 -98.5825 101° East 492 566 29,600 -2,820 Descending Minneapolis Center
05:18PM 47.1483 -98.3861 101° East 494 568 26,800 -2,820 Descending Minneapolis Center
05:19PM 47.1178 -98.1581 101° East 488 562 23,300 -3,000 Descending Minneapolis Center
05:20PM 47.0911 -97.9686 102° East 484 557 20,700 -2,520 Descending Minneapolis Center
05:21PM 47.0661 -97.7975 102° East 446 513 18,200 -2,880 Descending Minneapolis Center
05:22PM 47.0456 -97.5917 98° East 421 484 14,800 -2,880 Descending Minneapolis Center
05:23PM 47.0406 -97.4614 93° East 403 464 12,300 -2,580 Descending Minneapolis Center
05:24PM 47.0544 -97.2842 83° East 338 389 9,500 -2,040 Descending Minneapolis Center
05:25PM 47.0786 -97.1747 72° East 296 341 8,200 -1,380 Descending Minneapolis Center
05:26PM 47.1014 -97.0828 70° East 275 316 6,700 -1,800 Descending Minneapolis Center
05:27PM 47.1364 -96.9606 67° East 267 307 4,600 -1,440 Descending Minneapolis Center
05:28PM 47.1433 -96.8636 84° East 219 252 3,800 -660 Descending Minneapolis Center
05:29PM 47.1156 -96.8119 128° Southeast 178 205 3,300 -600 Descending Minneapolis Center
05:30PM 47.0683 -96.8144 182° South 172 198 2,600 -420 Descending Minneapolis Center
05:31PM 47.0186 -96.8147 180° South 172 198 2,500 -300 Descending Minneapolis Center
05:32PM 46.9856 -96.8156 181° South 116 133 2,000 -600 Descending Minneapolis Center
05:33PM 46.9542 -96.8156 180° South 110 127 1,300 -720 Descending Minneapolis Center
05:35PM 46.9167 -96.8000 171° South  Level FlightAware Approximate
05:42PM 46.9207 -96.8158 171° South  Level Estimated